Impacts TAF Board
For situational awareness. Not to be used for flight planning purposes.
IDs:

KABQ - Albuquerque Intl, NM, US

Issued at 2321 UTC 28 Nov 2020
Updated at 0236 UTC 29 Nov 2020
Potential Impact None Slight Moderate High
Time0152Z 29/03Z 29/04Z 29/05Z 29/06Z 29/07Z 29/08Z 29/09Z 29/10Z 29/11Z 29/12Z 29/13Z 29/14Z 29/15Z>>
Type OBS PRVL PRVL PRVL PRVL PRVL PRVL PRVL PRVL PRVL PRVL PRVL PRVL PRVL
VIS 10 >6 >6 >6 >6 >6 >6 >6 >6 >6 >6 >6 >6 >6
CIG -- -- -- -- -- -- -- -- -- -- -- -- -- --
Cover CLR SKC SKC SKC SKC SKC SKC SKC SKC SKC SKC SKC SKC SKC
FltCat VFR VFR VFR VFR VFR VFR VFR VFR VFR VFR VFR VFR VFR VFR
WX -- -- -- -- -- -- -- -- -- -- -- -- -- --
WDir 350 10 10 10 10 10 10 10 10 10 10 10 10 10
WSpd 10 6 6 6 6 6 6 6 6 6 6 6 6 6
WGst -- -- -- -- -- -- -- -- -- -- -- -- -- --
R03/21
XWnd 8 3 3 3 3 3 3 3 3 3 3 3 3 3
HWnd 6 5 5 5 5 5 5 5 5 5 5 5 5 5
R08/26
XWnd 10 6 6 6 6 6 6 6 6 6 6 6 6 6
HWnd -2 1 1 1 1 1 1 1 1 1 1 1 1 1
R12/30
XWnd 7 5 5 5 5 5 5 5 5 5 5 5 5 5
HWnd -8 -3 -3 -3 -3 -3 -3 -3 -3 -3 -3 -3 -3 -3
Raw TAF
KABQ 282321Z 2900/2924 34012KT P6SM SKC
  FM290200 01006KT P6SM SKC
  FM291600 08012KT P6SM SKC


Raw METAR
KABQ 290152Z 35010KT 10SM CLR 07/M09 A3017 RMK AO2 SLP209 T00671094
KABQ 290052Z 35012G19KT 10SM CLR 07/M08 A3016 RMK AO2 SLP204 T00721083
KABQ 282352Z 35009KT 10SM CLR 08/M07 A3015 RMK AO2 SLP198 T00831072 10100 20039 55006

METAR Board
Radar Display
Forecast Discussion
For situational awareness. Not to be used for flight planning purposes.